<?xml version="1.0" encoding="UTF-8" standalone="no" ?>
<gpx xmlns="http://www.topografix.com/GPX/1/1" xmlns:xsi="http://www.w3.org/2001/XMLSchema-instance" xsi:schemaLocation="http://www.topografix.com/GPX/1/1 http://www.topografix.com/GPX/1/1/gpx.xsd" version="1.1" creator="VisuGPX - https://www.visugpx.com">
  <metadata>
    <name>Broc/Carros</name>
    <desc><![CDATA[Broc/Carros]]></desc>
  </metadata>
  <trk>
    <name><![CDATA[Broc/Carros_1]]></name>
    <trkseg>
      <trkpt lat="43.8144" lon="7.16563">
        <ele>493</ele>
        <time>2015-09-30T09:31:52Z</time>
      </trkpt>
      <trkpt lat="43.81514" lon="7.16561">
        <ele>496</ele>
        <time>2015-09-30T09:31:53Z</time>
      </trkpt>
      <trkpt lat="43.81542" lon="7.16595">
        <ele>475</ele>
        <time>2015-09-30T09:31:54Z</time>
      </trkpt>
      <trkpt lat="43.81581" lon="7.16597">
        <ele>481</ele>
        <time>2015-09-30T09:31:55Z</time>
      </trkpt>
      <trkpt lat="43.8161" lon="7.16588">
        <ele>479</ele>
        <time>2015-09-30T09:31:56Z</time>
      </trkpt>
      <trkpt lat="43.81643" lon="7.16599">
        <ele>478</ele>
        <time>2015-09-30T09:31:57Z</time>
      </trkpt>
      <trkpt lat="43.81678" lon="7.16608">
        <ele>475</ele>
        <time>2015-09-30T09:31:58Z</time>
      </trkpt>
      <trkpt lat="43.81711" lon="7.16612">
        <ele>472</ele>
        <time>2015-09-30T09:31:59Z</time>
      </trkpt>
      <trkpt lat="43.81788" lon="7.16483">
        <ele>485</ele>
        <time>2015-09-30T09:32:00Z</time>
      </trkpt>
      <trkpt lat="43.81787" lon="7.16403">
        <ele>492</ele>
        <time>2015-09-30T09:32:01Z</time>
      </trkpt>
      <trkpt lat="43.81822" lon="7.16352">
        <ele>489</ele>
        <time>2015-09-30T09:32:02Z</time>
      </trkpt>
      <trkpt lat="43.81864" lon="7.16339">
        <ele>472</ele>
        <time>2015-09-30T09:32:03Z</time>
      </trkpt>
      <trkpt lat="43.81895" lon="7.16217">
        <ele>476</ele>
        <time>2015-09-30T09:32:04Z</time>
      </trkpt>
      <trkpt lat="43.81873" lon="7.16139">
        <ele>488</ele>
        <time>2015-09-30T09:32:05Z</time>
      </trkpt>
      <trkpt lat="43.81971" lon="7.16127">
        <ele>473</ele>
        <time>2015-09-30T09:32:06Z</time>
      </trkpt>
      <trkpt lat="43.82051" lon="7.16107">
        <ele>466</ele>
        <time>2015-09-30T09:32:07Z</time>
      </trkpt>
      <trkpt lat="43.82171" lon="7.16103">
        <ele>467</ele>
        <time>2015-09-30T09:32:08Z</time>
      </trkpt>
      <trkpt lat="43.82234" lon="7.16146">
        <ele>463</ele>
        <time>2015-09-30T09:32:09Z</time>
      </trkpt>
      <trkpt lat="43.82343" lon="7.162">
        <ele>468</ele>
        <time>2015-09-30T09:32:10Z</time>
      </trkpt>
      <trkpt lat="43.82349" lon="7.16236">
        <ele>462</ele>
        <time>2015-09-30T09:32:11Z</time>
      </trkpt>
      <trkpt lat="43.82336" lon="7.16292">
        <ele>448</ele>
        <time>2015-09-30T09:32:12Z</time>
      </trkpt>
      <trkpt lat="43.82387" lon="7.16339">
        <ele>434</ele>
        <time>2015-09-30T09:32:13Z</time>
      </trkpt>
      <trkpt lat="43.82457" lon="7.16343">
        <ele>443</ele>
        <time>2015-09-30T09:32:14Z</time>
      </trkpt>
      <trkpt lat="43.82617" lon="7.1644">
        <ele>430</ele>
        <time>2015-09-30T09:32:15Z</time>
      </trkpt>
      <trkpt lat="43.82733" lon="7.16521">
        <ele>413</ele>
        <time>2015-09-30T09:32:16Z</time>
      </trkpt>
      <trkpt lat="43.82802" lon="7.16348">
        <ele>412</ele>
        <time>2015-09-30T09:32:17Z</time>
      </trkpt>
      <trkpt lat="43.8287" lon="7.1618">
        <ele>410</ele>
        <time>2015-09-30T09:32:18Z</time>
      </trkpt>
      <trkpt lat="43.83165" lon="7.1576">
        <ele>387</ele>
        <time>2015-09-30T09:32:19Z</time>
      </trkpt>
      <trkpt lat="43.83179" lon="7.15763">
        <ele>384</ele>
        <time>2015-09-30T09:32:20Z</time>
      </trkpt>
      <trkpt lat="43.8318" lon="7.15726">
        <ele>380</ele>
        <time>2015-09-30T09:32:21Z</time>
      </trkpt>
      <trkpt lat="43.83185" lon="7.15707">
        <ele>379</ele>
        <time>2015-09-30T09:32:22Z</time>
      </trkpt>
      <trkpt lat="43.83244" lon="7.15715">
        <ele>376</ele>
        <time>2015-09-30T09:32:23Z</time>
      </trkpt>
      <trkpt lat="43.83339" lon="7.15674">
        <ele>375</ele>
        <time>2015-09-30T09:32:24Z</time>
      </trkpt>
      <trkpt lat="43.83389" lon="7.15625">
        <ele>369</ele>
        <time>2015-09-30T09:32:25Z</time>
      </trkpt>
      <trkpt lat="43.83479" lon="7.15554">
        <ele>366</ele>
        <time>2015-09-30T09:32:26Z</time>
      </trkpt>
      <trkpt lat="43.83531" lon="7.15484">
        <ele>359</ele>
        <time>2015-09-30T09:32:27Z</time>
      </trkpt>
      <trkpt lat="43.83566" lon="7.15459">
        <ele>360</ele>
        <time>2015-09-30T09:32:28Z</time>
      </trkpt>
      <trkpt lat="43.83767" lon="7.15265">
        <ele>354</ele>
        <time>2015-09-30T09:32:29Z</time>
      </trkpt>
      <trkpt lat="43.83867" lon="7.15174">
        <ele>346</ele>
        <time>2015-09-30T09:32:30Z</time>
      </trkpt>
      <trkpt lat="43.83938" lon="7.1512">
        <ele>341</ele>
        <time>2015-09-30T09:32:31Z</time>
      </trkpt>
      <trkpt lat="43.83979" lon="7.1513">
        <ele>344</ele>
        <time>2015-09-30T09:32:32Z</time>
      </trkpt>
      <trkpt lat="43.84066" lon="7.1518">
        <ele>343</ele>
        <time>2015-09-30T09:32:33Z</time>
      </trkpt>
      <trkpt lat="43.84143" lon="7.15269">
        <ele>330</ele>
        <time>2015-09-30T09:32:34Z</time>
      </trkpt>
      <trkpt lat="43.84177" lon="7.15327">
        <ele>327</ele>
        <time>2015-09-30T09:32:35Z</time>
      </trkpt>
      <trkpt lat="43.84217" lon="7.15366">
        <ele>324</ele>
        <time>2015-09-30T09:32:36Z</time>
      </trkpt>
      <trkpt lat="43.84228" lon="7.15385">
        <ele>324</ele>
        <time>2015-09-30T09:32:37Z</time>
      </trkpt>
      <trkpt lat="43.84189" lon="7.15467">
        <ele>324</ele>
        <time>2015-09-30T09:32:38Z</time>
      </trkpt>
      <trkpt lat="43.84162" lon="7.15637">
        <ele>321</ele>
        <time>2015-09-30T09:32:39Z</time>
      </trkpt>
      <trkpt lat="43.84164" lon="7.1573">
        <ele>323</ele>
        <time>2015-09-30T09:32:40Z</time>
      </trkpt>
      <trkpt lat="43.8414" lon="7.15773">
        <ele>323</ele>
        <time>2015-09-30T09:32:41Z</time>
      </trkpt>
      <trkpt lat="43.84117" lon="7.15794">
        <ele>324</ele>
        <time>2015-09-30T09:32:42Z</time>
      </trkpt>
      <trkpt lat="43.84105" lon="7.158">
        <ele>325</ele>
        <time>2015-09-30T09:32:43Z</time>
      </trkpt>
      <trkpt lat="43.84108" lon="7.15825">
        <ele>326</ele>
        <time>2015-09-30T09:32:44Z</time>
      </trkpt>
      <trkpt lat="43.84132" lon="7.15851">
        <ele>322</ele>
        <time>2015-09-30T09:32:45Z</time>
      </trkpt>
      <trkpt lat="43.8414" lon="7.15864">
        <ele>321</ele>
        <time>2015-09-30T09:32:46Z</time>
      </trkpt>
      <trkpt lat="43.84135" lon="7.15896">
        <ele>320</ele>
        <time>2015-09-30T09:32:47Z</time>
      </trkpt>
      <trkpt lat="43.84088" lon="7.16092">
        <ele>305</ele>
        <time>2015-09-30T09:32:48Z</time>
      </trkpt>
      <trkpt lat="43.83981" lon="7.16225">
        <ele>295</ele>
        <time>2015-09-30T09:32:49Z</time>
      </trkpt>
      <trkpt lat="43.83875" lon="7.16305">
        <ele>301</ele>
        <time>2015-09-30T09:32:50Z</time>
      </trkpt>
      <trkpt lat="43.8387" lon="7.16364">
        <ele>284</ele>
        <time>2015-09-30T09:32:51Z</time>
      </trkpt>
      <trkpt lat="43.83882" lon="7.16445">
        <ele>264</ele>
        <time>2015-09-30T09:32:52Z</time>
      </trkpt>
      <trkpt lat="43.83818" lon="7.16579">
        <ele>271</ele>
        <time>2015-09-30T09:32:53Z</time>
      </trkpt>
      <trkpt lat="43.83798" lon="7.1668">
        <ele>266</ele>
        <time>2015-09-30T09:32:54Z</time>
      </trkpt>
      <trkpt lat="43.83791" lon="7.16819">
        <ele>254</ele>
        <time>2015-09-30T09:32:55Z</time>
      </trkpt>
      <trkpt lat="43.83798" lon="7.16871">
        <ele>240</ele>
        <time>2015-09-30T09:32:56Z</time>
      </trkpt>
      <trkpt lat="43.83794" lon="7.16879">
        <ele>240</ele>
        <time>2015-09-30T09:32:57Z</time>
      </trkpt>
      <trkpt lat="43.83777" lon="7.16888">
        <ele>243</ele>
        <time>2015-09-30T09:32:58Z</time>
      </trkpt>
      <trkpt lat="43.83767" lon="7.16924">
        <ele>234</ele>
        <time>2015-09-30T09:32:59Z</time>
      </trkpt>
      <trkpt lat="43.83736" lon="7.16946">
        <ele>245</ele>
        <time>2015-09-30T09:33:00Z</time>
      </trkpt>
      <trkpt lat="43.83729" lon="7.16958">
        <ele>243</ele>
        <time>2015-09-30T09:33:01Z</time>
      </trkpt>
      <trkpt lat="43.83731" lon="7.16975">
        <ele>238</ele>
        <time>2015-09-30T09:33:02Z</time>
      </trkpt>
      <trkpt lat="43.83694" lon="7.16978">
        <ele>242</ele>
        <time>2015-09-30T09:33:03Z</time>
      </trkpt>
      <trkpt lat="43.83664" lon="7.16998">
        <ele>239</ele>
        <time>2015-09-30T09:33:04Z</time>
      </trkpt>
      <trkpt lat="43.83604" lon="7.17027">
        <ele>223</ele>
        <time>2015-09-30T09:33:05Z</time>
      </trkpt>
      <trkpt lat="43.83527" lon="7.17035">
        <ele>218</ele>
        <time>2015-09-30T09:33:06Z</time>
      </trkpt>
      <trkpt lat="43.83465" lon="7.17019">
        <ele>215</ele>
        <time>2015-09-30T09:33:07Z</time>
      </trkpt>
      <trkpt lat="43.83418" lon="7.17014">
        <ele>218</ele>
        <time>2015-09-30T09:33:08Z</time>
      </trkpt>
      <trkpt lat="43.83405" lon="7.17037">
        <ele>215</ele>
        <time>2015-09-30T09:33:09Z</time>
      </trkpt>
      <trkpt lat="43.83382" lon="7.17063">
        <ele>211</ele>
        <time>2015-09-30T09:33:10Z</time>
      </trkpt>
      <trkpt lat="43.83313" lon="7.17186">
        <ele>175</ele>
        <time>2015-09-30T09:33:11Z</time>
      </trkpt>
      <trkpt lat="43.83268" lon="7.17188">
        <ele>182</ele>
        <time>2015-09-30T09:33:12Z</time>
      </trkpt>
      <trkpt lat="43.83258" lon="7.17217">
        <ele>178</ele>
        <time>2015-09-30T09:33:13Z</time>
      </trkpt>
      <trkpt lat="43.83278" lon="7.17254">
        <ele>161</ele>
        <time>2015-09-30T09:33:14Z</time>
      </trkpt>
    </trkseg>
  </trk>
</gpx>